NOZ1EU ENGM-EFTU
Flight info
| Callsign | NOZ1EU |
|---|---|
| Flight time | 0h 59m |
| Altitude | 37000 |
| Route | MASEV DCT OTKIL |
| Aircraft | B738/M-SDE2E3FGHIRWXY/LB1 |
Departure
| Time | 2026-04-17 08:59 |
|---|---|
| Airport | Oslo-Gardermoen International Airport (ENGM) |
Arrival
| Time | 2026-04-17 09:58 |
|---|---|
| Airport | Turku Airport (EFTU) |
| Time | Latitude | Longitude | Altitude | Speed | Heading |
|---|---|---|---|---|---|
| 2026-04-17 08:49 | 60.19414 | 11.10556 | 687 ft | 0 kts | 195° |
| 2026-04-17 08:54 | 60.19423 | 11.10561 | 683 ft | 4 kts | 194° |
| 2026-04-17 08:54 | 60.19449 | 11.10573 | 683 ft | 4 kts | 190° |
| 2026-04-17 08:54 | 60.19476 | 11.10581 | 684 ft | 4 kts | 182° |
| 2026-04-17 08:55 | 60.19502 | 11.10577 | 686 ft | 4 kts | 156° |
| 2026-04-17 08:55 | 60.19516 | 11.10555 | 686 ft | 0 kts | 106° |
| 2026-04-17 08:56 | 60.19516 | 11.10556 | 685 ft | 1 kts | 106° |
| 2026-04-17 08:57 | 60.19498 | 11.10674 | 687 ft | 16 kts | 107° |
| 2026-04-17 08:57 | 60.19464 | 11.10910 | 684 ft | 18 kts | 106° |
| 2026-04-17 08:57 | 60.19430 | 11.11148 | 687 ft | 18 kts | 106° |
| 2026-04-17 08:57 | 60.19393 | 11.11410 | 684 ft | 20 kts | 106° |
| 2026-04-17 08:58 | 60.19334 | 11.11666 | 685 ft | 20 kts | 122° |
| 2026-04-17 08:58 | 60.19215 | 11.11726 | 686 ft | 23 kts | 195° |
| 2026-04-17 08:58 | 60.18792 | 11.11482 | 688 ft | 104 kts | 196° |
| 2026-04-17 08:58 | 60.17897 | 11.10977 | 868 ft | 151 kts | 195° |
| 2026-04-17 08:59 | 60.16865 | 11.10390 | 1751 ft | 156 kts | 196° |
| 2026-04-17 08:59 | 60.15781 | 11.09763 | 2476 ft | 175 kts | 195° |
| 2026-04-17 08:59 | 60.14507 | 11.09116 | 2852 ft | 207 kts | 186° |
| 2026-04-17 08:59 | 60.13035 | 11.09657 | 3352 ft | 224 kts | 157° |
| 2026-04-17 09:00 | 60.11713 | 11.11571 | 3824 ft | 246 kts | 134° |
| 2026-04-17 09:00 | 60.10536 | 11.14162 | 4695 ft | 254 kts | 134° |
| 2026-04-17 09:00 | 60.09330 | 11.16759 | 5786 ft | 256 kts | 135° |
| 2026-04-17 09:00 | 60.08124 | 11.19440 | 6754 ft | 263 kts | 127° |
| 2026-04-17 09:01 | 60.07452 | 11.22886 | 7645 ft | 274 kts | 97° |
| 2026-04-17 09:01 | 60.07704 | 11.26688 | 8575 ft | 283 kts | 68° |
| 2026-04-17 09:01 | 60.08860 | 11.29917 | 9509 ft | 290 kts | 45° |
| 2026-04-17 09:01 | 60.10331 | 11.32736 | 10430 ft | 295 kts | 43° |
| 2026-04-17 09:02 | 60.11873 | 11.35630 | 10914 ft | 316 kts | 43° |
| 2026-04-17 09:02 | 60.13513 | 11.38753 | 11238 ft | 337 kts | 44° |
| 2026-04-17 09:02 | 60.15223 | 11.42051 | 12047 ft | 343 kts | 44° |
| 2026-04-17 09:02 | 60.16945 | 11.45413 | 12959 ft | 346 kts | 45° |
| 2026-04-17 09:03 | 60.18548 | 11.49080 | 13838 ft | 351 kts | 50° |
| 2026-04-17 09:03 | 60.20080 | 11.52953 | 14637 ft | 355 kts | 51° |
| 2026-04-17 09:03 | 60.21620 | 11.56883 | 15455 ft | 358 kts | 51° |
| 2026-04-17 09:03 | 60.23189 | 11.60811 | 16203 ft | 363 kts | 50° |
| 2026-04-17 09:04 | 60.24776 | 11.64732 | 16989 ft | 367 kts | 50° |
| 2026-04-17 09:04 | 60.26376 | 11.68772 | 17745 ft | 371 kts | 55° |
| 2026-04-17 09:04 | 60.27404 | 11.73561 | 18469 ft | 377 kts | 78° |
| 2026-04-17 09:04 | 60.27511 | 11.78872 | 19174 ft | 380 kts | 97° |
| 2026-04-17 09:05 | 60.27127 | 11.84095 | 19849 ft | 383 kts | 99° |
| 2026-04-17 09:05 | 60.26710 | 11.89442 | 20471 ft | 388 kts | 98° |
| 2026-04-17 09:05 | 60.26309 | 11.94840 | 21103 ft | 392 kts | 98° |
| 2026-04-17 09:05 | 60.25753 | 12.00248 | 21744 ft | 396 kts | 104° |
| 2026-04-17 09:06 | 60.24982 | 12.05593 | 22369 ft | 400 kts | 107° |
| 2026-04-17 09:06 | 60.24142 | 12.10970 | 22973 ft | 404 kts | 107° |
| 2026-04-17 09:06 | 60.23297 | 12.16392 | 23635 ft | 406 kts | 106° |
| 2026-04-17 09:06 | 60.22476 | 12.21780 | 24182 ft | 409 kts | 106° |
| 2026-04-17 09:07 | 60.21656 | 12.27294 | 24677 ft | 413 kts | 105° |
| 2026-04-17 09:07 | 60.20837 | 12.32861 | 25160 ft | 416 kts | 105° |
| 2026-04-17 09:07 | 60.20016 | 12.38473 | 25653 ft | 419 kts | 105° |
| 2026-04-17 09:07 | 60.19188 | 12.44115 | 26144 ft | 422 kts | 105° |
| 2026-04-17 09:08 | 60.18351 | 12.49793 | 26620 ft | 425 kts | 105° |
| 2026-04-17 09:08 | 60.17879 | 12.55643 | 27031 ft | 426 kts | 87° |
| 2026-04-17 09:08 | 60.18215 | 12.61564 | 27523 ft | 427 kts | 80° |
| 2026-04-17 09:08 | 60.18645 | 12.67486 | 27985 ft | 430 kts | 80° |
| 2026-04-17 09:09 | 60.19073 | 12.73458 | 28408 ft | 433 kts | 80° |
| 2026-04-17 09:09 | 60.19494 | 12.79486 | 28818 ft | 436 kts | 81° |
| 2026-04-17 09:09 | 60.19900 | 12.85476 | 29234 ft | 439 kts | 81° |
| 2026-04-17 09:09 | 60.20305 | 12.91593 | 29643 ft | 442 kts | 81° |
| 2026-04-17 09:10 | 60.21080 | 13.03635 | 30384 ft | 447 kts | 81° |
| 2026-04-17 09:10 | 60.21470 | 13.09804 | 30698 ft | 450 kts | 81° |
| 2026-04-17 09:10 | 60.21863 | 13.16072 | 30987 ft | 452 kts | 82° |
| 2026-04-17 09:11 | 60.22254 | 13.22370 | 31290 ft | 454 kts | 82° |
| 2026-04-17 09:11 | 60.22643 | 13.28677 | 31687 ft | 454 kts | 82° |
| 2026-04-17 09:11 | 60.23029 | 13.34985 | 32139 ft | 453 kts | 82° |
| 2026-04-17 09:11 | 60.23410 | 13.41267 | 32560 ft | 452 kts | 82° |
| 2026-04-17 09:12 | 60.23789 | 13.47558 | 32928 ft | 452 kts | 83° |
| 2026-04-17 09:12 | 60.24165 | 13.53829 | 33389 ft | 450 kts | 83° |
| 2026-04-17 09:12 | 60.24533 | 13.60023 | 33843 ft | 448 kts | 83° |
| 2026-04-17 09:12 | 60.24901 | 13.66284 | 34245 ft | 448 kts | 83° |
| 2026-04-17 09:13 | 60.25265 | 13.72521 | 34543 ft | 449 kts | 83° |
| 2026-04-17 09:13 | 60.25627 | 13.78761 | 34823 ft | 449 kts | 83° |
| 2026-04-17 09:13 | 60.25986 | 13.85023 | 35126 ft | 449 kts | 83° |
| 2026-04-17 09:13 | 60.26338 | 13.91201 | 35415 ft | 449 kts | 83° |
| 2026-04-17 09:14 | 60.26692 | 13.97463 | 35692 ft | 450 kts | 83° |
| 2026-04-17 09:14 | 60.27026 | 14.03436 | 35948 ft | 450 kts | 83° |
| 2026-04-17 09:14 | 60.27374 | 14.09704 | 36242 ft | 450 kts | 83° |
| 2026-04-17 09:14 | 60.27719 | 14.15968 | 36519 ft | 450 kts | 84° |
| 2026-04-17 09:15 | 60.28062 | 14.22245 | 36807 ft | 450 kts | 84° |
| 2026-04-17 09:15 | 60.28401 | 14.28527 | 37065 ft | 451 kts | 84° |
| 2026-04-17 09:15 | 60.28738 | 14.34811 | 37284 ft | 452 kts | 84° |
| 2026-04-17 09:15 | 60.29071 | 14.41081 | 37296 ft | 456 kts | 84° |
| 2026-04-17 09:16 | 60.29740 | 14.53846 | 37306 ft | 456 kts | 84° |
| 2026-04-17 09:16 | 60.30388 | 14.66461 | 37303 ft | 449 kts | 84° |
| 2026-04-17 09:17 | 60.31019 | 14.78981 | 37318 ft | 448 kts | 84° |
| 2026-04-17 09:17 | 60.31635 | 14.91431 | 37310 ft | 449 kts | 84° |
| 2026-04-17 09:18 | 60.32231 | 15.03706 | 37319 ft | 449 kts | 84° |
| 2026-04-17 09:18 | 60.32831 | 15.16298 | 37317 ft | 450 kts | 84° |
| 2026-04-17 09:19 | 60.33414 | 15.28824 | 37324 ft | 450 kts | 85° |
| 2026-04-17 09:19 | 60.33991 | 15.41448 | 37315 ft | 451 kts | 85° |
| 2026-04-17 09:20 | 60.34555 | 15.54073 | 37322 ft | 452 kts | 85° |
| 2026-04-17 09:20 | 60.35108 | 15.66714 | 37316 ft | 452 kts | 85° |
| 2026-04-17 09:21 | 60.35647 | 15.79315 | 37311 ft | 452 kts | 85° |
| 2026-04-17 09:21 | 60.36177 | 15.91982 | 37311 ft | 452 kts | 85° |
| 2026-04-17 09:22 | 60.36685 | 16.04424 | 37314 ft | 452 kts | 85° |
| 2026-04-17 09:22 | 60.37188 | 16.17019 | 37310 ft | 452 kts | 85° |
| 2026-04-17 09:23 | 60.37681 | 16.29683 | 37310 ft | 451 kts | 85° |
| 2026-04-17 09:23 | 60.38162 | 16.42334 | 37312 ft | 451 kts | 85° |
| 2026-04-17 09:24 | 60.38630 | 16.54983 | 37311 ft | 451 kts | 85° |
| 2026-04-17 09:24 | 60.39086 | 16.67631 | 37305 ft | 450 kts | 86° |
| 2026-04-17 09:25 | 60.39527 | 16.80186 | 37319 ft | 450 kts | 86° |
| 2026-04-17 09:25 | 60.39959 | 16.92833 | 37322 ft | 450 kts | 86° |
| 2026-04-17 09:26 | 60.40371 | 17.05237 | 37315 ft | 450 kts | 86° |
| 2026-04-17 09:26 | 60.40779 | 17.17855 | 37316 ft | 450 kts | 86° |
| 2026-04-17 09:27 | 60.41174 | 17.30480 | 37304 ft | 450 kts | 85° |
| 2026-04-17 09:27 | 60.41367 | 17.36774 | 36884 ft | 454 kts | 86° |
| 2026-04-17 09:27 | 60.41495 | 17.40999 | 36577 ft | 452 kts | 86° |
| 2026-04-17 09:28 | 60.41747 | 17.49481 | 35815 ft | 450 kts | 86° |
| 2026-04-17 09:28 | 60.41869 | 17.53665 | 35514 ft | 448 kts | 87° |
| 2026-04-17 09:28 | 60.42049 | 17.59917 | 35095 ft | 443 kts | 87° |
| 2026-04-17 09:28 | 60.42226 | 17.66120 | 34676 ft | 439 kts | 88° |
| 2026-04-17 09:29 | 60.42398 | 17.72284 | 34248 ft | 435 kts | 87° |
| 2026-04-17 09:29 | 60.42566 | 17.78381 | 33761 ft | 432 kts | 88° |
| 2026-04-17 09:29 | 60.42728 | 17.84412 | 33343 ft | 426 kts | 87° |
| 2026-04-17 09:29 | 60.42886 | 17.90386 | 32924 ft | 421 kts | 87° |
| 2026-04-17 09:30 | 60.43038 | 17.96205 | 32525 ft | 416 kts | 87° |
| 2026-04-17 09:30 | 60.43181 | 18.01796 | 32136 ft | 412 kts | 87° |
| 2026-04-17 09:30 | 60.43327 | 18.07570 | 31727 ft | 408 kts | 88° |
| 2026-04-17 09:30 | 60.43469 | 18.13289 | 31348 ft | 404 kts | 87° |
| 2026-04-17 09:31 | 60.43607 | 18.18978 | 30947 ft | 401 kts | 88° |
| 2026-04-17 09:31 | 60.43742 | 18.24602 | 30560 ft | 398 kts | 88° |
| 2026-04-17 09:31 | 60.43873 | 18.30182 | 30144 ft | 395 kts | 88° |
| 2026-04-17 09:31 | 60.44001 | 18.35710 | 29737 ft | 390 kts | 88° |
| 2026-04-17 09:32 | 60.44123 | 18.41105 | 29338 ft | 386 kts | 88° |
| 2026-04-17 09:32 | 60.44244 | 18.46508 | 28950 ft | 382 kts | 88° |
| 2026-04-17 09:32 | 60.44361 | 18.51844 | 28573 ft | 378 kts | 86° |
| 2026-04-17 09:32 | 60.44474 | 18.57137 | 28182 ft | 374 kts | 87° |
| 2026-04-17 09:33 | 60.44584 | 18.62369 | 27798 ft | 370 kts | 87° |
| 2026-04-17 09:33 | 60.44690 | 18.67548 | 27416 ft | 366 kts | 86° |
| 2026-04-17 09:33 | 60.44794 | 18.72678 | 27023 ft | 363 kts | 86° |
| 2026-04-17 09:33 | 60.44896 | 18.77765 | 26661 ft | 360 kts | 86° |
| 2026-04-17 09:34 | 60.44994 | 18.82814 | 26281 ft | 357 kts | 87° |
| 2026-04-17 09:34 | 60.45091 | 18.87829 | 25912 ft | 355 kts | 87° |
| 2026-04-17 09:34 | 60.45185 | 18.92814 | 25547 ft | 352 kts | 86° |
| 2026-04-17 09:34 | 60.45277 | 18.97756 | 25181 ft | 350 kts | 87° |
| 2026-04-17 09:35 | 60.45361 | 19.02427 | 24842 ft | 347 kts | 87° |
| 2026-04-17 09:35 | 60.45447 | 19.07306 | 24486 ft | 345 kts | 87° |
| 2026-04-17 09:35 | 60.45530 | 19.12156 | 24133 ft | 343 kts | 87° |
| 2026-04-17 09:35 | 60.45613 | 19.16983 | 23758 ft | 341 kts | 87° |
| 2026-04-17 09:36 | 60.45693 | 19.21794 | 23345 ft | 340 kts | 87° |
| 2026-04-17 09:36 | 60.45771 | 19.26550 | 22984 ft | 336 kts | 86° |
| 2026-04-17 09:36 | 60.45846 | 19.31286 | 22620 ft | 334 kts | 86° |
| 2026-04-17 09:36 | 60.45919 | 19.35967 | 22261 ft | 331 kts | 86° |
| 2026-04-17 09:37 | 60.45988 | 19.40557 | 21922 ft | 329 kts | 86° |
| 2026-04-17 09:37 | 60.46057 | 19.45181 | 21559 ft | 327 kts | 86° |
| 2026-04-17 09:37 | 60.46124 | 19.49786 | 21217 ft | 327 kts | 86° |
| 2026-04-17 09:37 | 60.46189 | 19.54394 | 20866 ft | 328 kts | 86° |
| 2026-04-17 09:38 | 60.46255 | 19.59056 | 20528 ft | 335 kts | 86° |
| 2026-04-17 09:38 | 60.46320 | 19.63821 | 20173 ft | 341 kts | 87° |
| 2026-04-17 09:38 | 60.46383 | 19.68644 | 19798 ft | 341 kts | 87° |
| 2026-04-17 09:38 | 60.46444 | 19.73445 | 19433 ft | 339 kts | 87° |
| 2026-04-17 09:39 | 60.46503 | 19.78215 | 19067 ft | 337 kts | 87° |
| 2026-04-17 09:39 | 60.46559 | 19.82955 | 18702 ft | 335 kts | 87° |
| 2026-04-17 09:39 | 60.46614 | 19.87672 | 18315 ft | 334 kts | 87° |
| 2026-04-17 09:39 | 60.46667 | 19.92358 | 17930 ft | 332 kts | 87° |
| 2026-04-17 09:40 | 60.46718 | 19.97016 | 17559 ft | 329 kts | 87° |
| 2026-04-17 09:40 | 60.46765 | 20.01404 | 17238 ft | 326 kts | 87° |
| 2026-04-17 09:40 | 60.46812 | 20.05984 | 16879 ft | 324 kts | 87° |
| 2026-04-17 09:40 | 60.46857 | 20.10535 | 16525 ft | 321 kts | 87° |
| 2026-04-17 09:41 | 60.46900 | 20.15054 | 16181 ft | 319 kts | 87° |
| 2026-04-17 09:41 | 60.46942 | 20.19544 | 15841 ft | 317 kts | 87° |
| 2026-04-17 09:41 | 60.46982 | 20.23999 | 15504 ft | 315 kts | 88° |
| 2026-04-17 09:41 | 60.47020 | 20.28440 | 15167 ft | 313 kts | 88° |
| 2026-04-17 09:42 | 60.47057 | 20.32850 | 14833 ft | 312 kts | 88° |
| 2026-04-17 09:42 | 60.47092 | 20.37233 | 14500 ft | 310 kts | 88° |
| 2026-04-17 09:42 | 60.47125 | 20.41545 | 14172 ft | 309 kts | 88° |
| 2026-04-17 09:42 | 60.47156 | 20.45899 | 13810 ft | 308 kts | 88° |
| 2026-04-17 09:43 | 60.47186 | 20.50217 | 13445 ft | 306 kts | 88° |
| 2026-04-17 09:43 | 60.47214 | 20.54527 | 13105 ft | 304 kts | 88° |
| 2026-04-17 09:43 | 60.47242 | 20.58791 | 12781 ft | 301 kts | 88° |
| 2026-04-17 09:43 | 60.47267 | 20.63036 | 12449 ft | 299 kts | 88° |
| 2026-04-17 09:44 | 60.47291 | 20.67180 | 12138 ft | 297 kts | 87° |
| 2026-04-17 09:44 | 60.47313 | 20.71358 | 11801 ft | 296 kts | 87° |
| 2026-04-17 09:44 | 60.47335 | 20.75524 | 11475 ft | 294 kts | 87° |
| 2026-04-17 09:44 | 60.47355 | 20.79663 | 11157 ft | 293 kts | 87° |
| 2026-04-17 09:45 | 60.47373 | 20.83793 | 10832 ft | 292 kts | 87° |
| 2026-04-17 09:45 | 60.47390 | 20.87908 | 10534 ft | 290 kts | 87° |
| 2026-04-17 09:45 | 60.47405 | 20.91890 | 10421 ft | 283 kts | 86° |
| 2026-04-17 09:45 | 60.47419 | 20.95862 | 10312 ft | 281 kts | 87° |
| 2026-04-17 09:46 | 60.47432 | 20.99795 | 10265 ft | 277 kts | 86° |
| 2026-04-17 09:46 | 60.47443 | 21.03481 | 10252 ft | 267 kts | 86° |
| 2026-04-17 09:46 | 60.47452 | 21.07168 | 10052 ft | 262 kts | 86° |
| 2026-04-17 09:46 | 60.47463 | 21.10954 | 9508 ft | 271 kts | 87° |
| 2026-04-17 09:47 | 60.47473 | 21.14793 | 9137 ft | 272 kts | 87° |
| 2026-04-17 09:47 | 60.47480 | 21.18624 | 8853 ft | 270 kts | 87° |
| 2026-04-17 09:47 | 60.47487 | 21.22366 | 8565 ft | 268 kts | 87° |
| 2026-04-17 09:47 | 60.47492 | 21.26140 | 8273 ft | 266 kts | 87° |
| 2026-04-17 09:48 | 60.47496 | 21.29894 | 7970 ft | 265 kts | 87° |
| 2026-04-17 09:48 | 60.47498 | 21.33619 | 7687 ft | 263 kts | 88° |
| 2026-04-17 09:48 | 60.47507 | 21.37310 | 7418 ft | 261 kts | 85° |
| 2026-04-17 09:48 | 60.47629 | 21.40964 | 7143 ft | 259 kts | 82° |
| 2026-04-17 09:49 | 60.47796 | 21.44588 | 6894 ft | 256 kts | 82° |
| 2026-04-17 09:49 | 60.47966 | 21.48174 | 6617 ft | 255 kts | 82° |
| 2026-04-17 09:49 | 60.48128 | 21.51680 | 6555 ft | 242 kts | 82° |
| 2026-04-17 09:49 | 60.48276 | 21.54980 | 6447 ft | 228 kts | 82° |
| 2026-04-17 09:50 | 60.48410 | 21.58045 | 6321 ft | 215 kts | 82° |
| 2026-04-17 09:50 | 60.48537 | 21.60967 | 6212 ft | 202 kts | 82° |
| 2026-04-17 09:50 | 60.48656 | 21.63746 | 6091 ft | 191 kts | 82° |
| 2026-04-17 09:50 | 60.48770 | 21.66405 | 5837 ft | 188 kts | 82° |
| 2026-04-17 09:51 | 60.48881 | 21.68999 | 5710 ft | 178 kts | 82° |
| 2026-04-17 09:51 | 60.48985 | 21.71455 | 5491 ft | 172 kts | 81° |
| 2026-04-17 09:51 | 60.49088 | 21.73871 | 5199 ft | 171 kts | 82° |
| 2026-04-17 09:51 | 60.49187 | 21.76224 | 4846 ft | 169 kts | 82° |
| 2026-04-17 09:52 | 60.49286 | 21.78602 | 4456 ft | 169 kts | 82° |
| 2026-04-17 09:52 | 60.49383 | 21.80960 | 4128 ft | 164 kts | 82° |
| 2026-04-17 09:52 | 60.49473 | 21.83196 | 3847 ft | 157 kts | 82° |
| 2026-04-17 09:52 | 60.49563 | 21.85396 | 3549 ft | 152 kts | 82° |
| 2026-04-17 09:53 | 60.49645 | 21.87471 | 3309 ft | 143 kts | 83° |
| 2026-04-17 09:53 | 60.49724 | 21.89464 | 3144 ft | 140 kts | 83° |
| 2026-04-17 09:53 | 60.49814 | 21.91421 | 2983 ft | 142 kts | 81° |
| 2026-04-17 09:53 | 60.49909 | 21.93412 | 2846 ft | 142 kts | 81° |
| 2026-04-17 09:54 | 60.50003 | 21.95394 | 2695 ft | 141 kts | 81° |
| 2026-04-17 09:54 | 60.50095 | 21.97375 | 2539 ft | 140 kts | 82° |
| 2026-04-17 09:54 | 60.50187 | 21.99353 | 2415 ft | 142 kts | 82° |
| 2026-04-17 09:54 | 60.50279 | 22.01280 | 2265 ft | 143 kts | 82° |
| 2026-04-17 09:55 | 60.50370 | 22.03258 | 2105 ft | 138 kts | 82° |
| 2026-04-17 09:55 | 60.50461 | 22.05221 | 1937 ft | 141 kts | 82° |
| 2026-04-17 09:55 | 60.50559 | 22.07161 | 1738 ft | 139 kts | 83° |
| 2026-04-17 09:55 | 60.50643 | 22.09136 | 1574 ft | 142 kts | 82° |
| 2026-04-17 09:56 | 60.50732 | 22.11120 | 1401 ft | 140 kts | 83° |
| 2026-04-17 09:56 | 60.50826 | 22.13119 | 1200 ft | 142 kts | 81° |
| 2026-04-17 09:56 | 60.50926 | 22.15117 | 1054 ft | 143 kts | 81° |
| 2026-04-17 09:56 | 60.51016 | 22.17148 | 1002 ft | 146 kts | 81° |
| 2026-04-17 09:57 | 60.51091 | 22.19169 | 734 ft | 140 kts | 81° |
| 2026-04-17 09:57 | 60.51182 | 22.21108 | 487 ft | 135 kts | 81° |
| 2026-04-17 09:57 | 60.51265 | 22.22977 | 304 ft | 133 kts | 81° |
| 2026-04-17 09:57 | 60.51347 | 22.24832 | 164 ft | 124 kts | 80° |
| 2026-04-17 09:58 | 60.51413 | 22.26285 | 163 ft | 76 kts | 85° |
| 2026-04-17 09:58 | 60.51438 | 22.26939 | 164 ft | 30 kts | 93° |
| 2026-04-17 09:58 | 60.51336 | 22.27094 | 166 ft | 15 kts | 120° |
| 2026-04-17 09:58 | 60.51310 | 22.27285 | 166 ft | 14 kts | 136° |
| 2026-04-17 09:59 | 60.51235 | 22.27384 | 166 ft | 5 kts | 148° |
| 2026-04-17 09:59 | 60.51227 | 22.27394 | 166 ft | 0 kts | 148° |